Time;durP1;ratioP1;P1;durP2;ratioP2;P2;SDS_P1;SDS_P2;PMS_P1;PMS_P2;Temp;Humidity;BMP_temperature;BMP_pressure;BME280_temperature;BME280_humidity;BME280_pressure;Samples;Min_cycle;Max_cycle;Signal;HPM_P1;HPM_P2
2022/04/03 00:00:14;;;;;;;20.58;12.60;;;;;;;;;;5123527;28;20168;-75
2022/04/03 00:02:40;;;;;;;17.60;11.70;;;;;;;;;;5119184;28;21470;-74
2022/04/03 00:05:05;;;;;;;17.85;11.77;;;;;;;;;;5119657;28;20019;-75
2022/04/03 00:07:33;;;;;;;18.08;11.85;;;;;;;;;;5120188;28;20019;-75
2022/04/03 00:09:59;;;;;;;17.52;12.07;;;;;;;;;;5118812;28;20027;-75
2022/04/03 00:12:25;;;;;;;18.42;12.48;;;;;;;;;;5119272;27;20027;-75
2022/04/03 00:14:50;;;;;;;17.73;11.27;;;;;;;;;;5118618;28;20071;-75
2022/04/03 00:17:15;;;;;;;17.00;10.57;;;;;;;;;;5118288;27;20016;-75
2022/04/03 00:19:41;;;;;;;15.70;9.77;;;;;;;;;;5119191;28;20137;-74
2022/04/03 00:22:06;;;;;;;17.50;11.07;;;;;;;;;;5120172;27;20011;-75
2022/04/03 00:24:31;;;;;;;15.05;10.13;;;;;;;;;;5121023;27;20030;-75
2022/04/03 00:26:56;;;;;;;17.17;11.38;;;;;;;;;;5124292;27;20020;-75
2022/04/03 00:29:23;;;;;;;19.52;12.95;;;;;;;;;;5116685;27;20016;-75
2022/04/03 00:31:48;;;;;;;19.55;11.80;;;;;;;;;;5114282;28;20023;-75
2022/04/03 00:34:13;;;;;;;16.10;10.40;;;;;;;;;;5114109;28;20349;-75
2022/04/03 00:36:39;;;;;;;10.85;7.35;;;;;;;;;;5115513;28;20030;-75
2022/04/03 00:39:04;;;;;;;7.80;5.32;;;;;;;;;;5118048;28;20055;-75
2022/04/03 00:41:29;;;;;;;7.60;5.13;;;;;;;;;;5119979;27;20042;-75
2022/04/03 00:43:55;;;;;;;8.68;5.50;;;;;;;;;;5124089;27;20353;-75
2022/04/03 00:46:23;;;;;;;8.13;4.93;;;;;;;;;;5120779;27;20007;-76
2022/04/03 00:48:48;;;;;;;8.02;4.93;;;;;;;;;;5122189;27;20051;-74
2022/04/03 00:51:14;;;;;;;7.40;4.53;;;;;;;;;;5123809;27;20062;-74
2022/04/03 00:53:39;;;;;;;6.35;4.30;;;;;;;;;;5121599;27;20047;-77
2022/04/03 00:56:05;;;;;;;7.25;4.60;;;;;;;;;;5123191;27;20050;-74
2022/04/03 00:58:31;;;;;;;6.43;4.28;;;;;;;;;;5123502;27;20084;-74
2022/04/03 01:00:56;;;;;;;7.20;4.93;;;;;;;;;;5124213;27;20027;-74
2022/04/03 01:03:22;;;;;;;6.55;4.15;;;;;;;;;;5122353;27;20039;-73
2022/04/03 01:05:47;;;;;;;6.20;3.80;;;;;;;;;;5119852;27;20059;-74
2022/04/03 01:08:13;;;;;;;7.50;4.43;;;;;;;;;;5133906;27;20019;-74
2022/04/03 01:10:39;;;;;;;6.45;4.25;;;;;;;;;;5121331;27;20015;-74
2022/04/03 01:13:04;;;;;;;6.38;4.45;;;;;;;;;;5113220;27;20023;-74
2022/04/03 01:15:30;;;;;;;4.32;2.92;;;;;;;;;;5112817;28;20047;-74
2022/04/03 01:17:55;;;;;;;5.55;3.95;;;;;;;;;;5123593;27;20015;-74
2022/04/03 01:20:20;;;;;;;7.07;4.50;;;;;;;;;;5132921;27;20113;-74
2022/04/03 01:22:46;;;;;;;5.32;3.50;;;;;;;;;;5133657;27;20475;-74
2022/04/03 01:25:11;;;;;;;6.20;4.38;;;;;;;;;;5133767;27;20023;-74
2022/04/03 01:27:36;;;;;;;6.75;3.83;;;;;;;;;;5133820;27;20030;-74
2022/04/03 01:30:02;;;;;;;6.50;4.43;;;;;;;;;;5133595;27;20026;-74
2022/04/03 01:32:28;;;;;;;8.20;4.30;;;;;;;;;;5133573;27;20177;-75
2022/04/03 01:34:53;;;;;;;8.77;4.68;;;;;;;;;;5126619;27;20106;-75
2022/04/03 01:37:18;;;;;;;7.20;4.18;;;;;;;;;;5119759;27;20096;-75
2022/04/03 01:39:43;;;;;;;5.07;3.63;;;;;;;;;;5110969;28;20011;-75
2022/04/03 01:42:09;;;;;;;5.70;3.33;;;;;;;;;;5129812;27;20080;-75
2022/04/03 01:44:35;;;;;;;5.95;3.80;;;;;;;;;;5131245;27;20642;-75
2022/04/03 01:47:00;;;;;;;5.60;3.83;;;;;;;;;;5132958;27;20015;-75
2022/04/03 01:49:25;;;;;;;6.03;3.55;;;;;;;;;;5134970;27;20035;-76
2022/04/03 01:51:50;;;;;;;5.35;3.72;;;;;;;;;;5134625;27;20511;-75
2022/04/03 01:54:15;;;;;;;5.45;3.70;;;;;;;;;;5113437;27;20026;-75
2022/04/03 01:56:41;;;;;;;5.30;3.45;;;;;;;;;;5111145;28;20077;-75
2022/04/03 01:59:06;;;;;;;4.93;3.15;;;;;;;;;;5112181;28;20026;-75
2022/04/03 02:01:32;;;;;;;6.07;4.20;;;;;;;;;;5112170;28;20019;-75
2022/04/03 02:03:57;;;;;;;5.47;3.88;;;;;;;;;;5112222;28;20068;-74
2022/04/03 02:06:23;;;;;;;5.50;3.92;;;;;;;;;;5125946;27;20380;-75
2022/04/03 02:08:48;;;;;;;5.45;3.80;;;;;;;;;;5130941;27;20085;-75
2022/04/03 02:11:15;;;;;;;6.55;4.10;;;;;;;;;;5132134;27;20026;-75
2022/04/03 02:13:40;;;;;;;6.50;4.00;;;;;;;;;;5132306;27;20023;-74
2022/04/03 02:16:06;;;;;;;5.90;4.03;;;;;;;;;;5132117;27;20054;-75
2022/04/03 02:18:31;;;;;;;6.47;4.28;;;;;;;;;;5131089;27;20045;-75
2022/04/03 02:20:56;;;;;;;5.72;4.38;;;;;;;;;;5132762;27;20023;-75
2022/04/03 02:23:21;;;;;;;6.25;4.13;;;;;;;;;;5132328;27;20027;-75
2022/04/03 02:25:49;;;;;;;6.15;4.40;;;;;;;;;;5130820;27;20023;-74
2022/04/03 02:28:15;;;;;;;5.90;3.40;;;;;;;;;;5132266;27;20503;-75
2022/04/03 02:30:40;;;;;;;7.38;3.97;;;;;;;;;;5122433;27;20015;-75
2022/04/03 02:33:05;;;;;;;6.53;4.05;;;;;;;;;;5131382;27;20023;-75
2022/04/03 02:35:31;;;;;;;6.50;3.83;;;;;;;;;;5130174;27;20043;-76
2022/04/03 02:37:56;;;;;;;7.30;4.13;;;;;;;;;;5131352;27;20023;-74
2022/04/03 02:40:21;;;;;;;5.90;4.38;;;;;;;;;;5132132;27;20015;-75
2022/04/03 02:42:46;;;;;;;6.03;3.92;;;;;;;;;;5131911;27;20117;-75
2022/04/03 02:45:12;;;;;;;5.45;3.60;;;;;;;;;;5133298;27;20050;-75
2022/04/03 02:47:37;;;;;;;6.63;3.80;;;;;;;;;;5130773;27;20032;-77
2022/04/03 02:50:04;;;;;;;5.85;3.90;;;;;;;;;;5135466;27;20019;-76
2022/04/03 02:52:29;;;;;;;7.18;3.83;;;;;;;;;;5134878;27;20055;-74
2022/04/03 02:54:54;;;;;;;5.65;3.80;;;;;;;;;;5131720;27;20412;-74
2022/04/03 02:57:20;;;;;;;7.25;4.32;;;;;;;;;;5131716;27;20031;-74
2022/04/03 02:59:45;;;;;;;5.63;3.88;;;;;;;;;;5131551;27;20075;-74
2022/04/03 03:02:10;;;;;;;5.90;4.10;;;;;;;;;;5131268;27;20019;-75
2022/04/03 03:04:36;;;;;;;6.32;4.15;;;;;;;;;;5131000;27;20057;-74
2022/04/03 03:07:05;;;;;;;6.10;3.97;;;;;;;;;;5131667;27;20023;-74
2022/04/03 03:09:30;;;;;;;7.57;3.92;;;;;;;;;;5131474;27;20019;-74
2022/04/03 03:11:55;;;;;;;5.72;4.25;;;;;;;;;;5131341;27;20388;-74
2022/04/03 03:14:21;;;;;;;7.90;4.13;;;;;;;;;;5131104;27;20021;-73
2022/04/03 03:16:47;;;;;;;6.60;4.22;;;;;;;;;;5131334;27;20019;-74
2022/04/03 03:19:12;;;;;;;6.40;3.75;;;;;;;;;;5131383;27;20107;-74
2022/04/03 03:21:37;;;;;;;7.40;4.47;;;;;;;;;;5132074;28;20468;-75
2022/04/03 03:24:02;;;;;;;5.70;3.83;;;;;;;;;;5131545;28;20027;-74
2022/04/03 03:26:28;;;;;;;6.90;4.72;;;;;;;;;;5131836;28;20106;-74
2022/04/03 03:28:53;;;;;;;6.50;4.57;;;;;;;;;;5133863;27;20023;-75
2022/04/03 03:31:19;;;;;;;6.10;4.10;;;;;;;;;;5131156;28;20114;-74
2022/04/03 03:33:45;;;;;;;6.82;4.50;;;;;;;;;;5130608;28;20023;-74
2022/04/03 03:36:10;;;;;;;6.22;4.10;;;;;;;;;;5132275;27;20035;-74
2022/04/03 03:38:35;;;;;;;6.43;4.18;;;;;;;;;;5132213;28;20024;-74
2022/04/03 03:41:01;;;;;;;6.32;4.63;;;;;;;;;;5133838;27;20019;-79
2022/04/03 03:43:26;;;;;;;7.55;5.13;;;;;;;;;;5132904;28;20483;-74
2022/04/03 03:45:51;;;;;;;7.72;5.03;;;;;;;;;;5131891;28;20054;-74
2022/04/03 03:48:16;;;;;;;6.82;4.47;;;;;;;;;;5131555;28;20026;-74
2022/04/03 03:50:42;;;;;;;7.60;4.63;;;;;;;;;;5131602;27;20023;-74
2022/04/03 03:53:07;;;;;;;8.20;5.30;;;;;;;;;;5131491;28;20019;-74
2022/04/03 03:55:32;;;;;;;9.43;5.00;;;;;;;;;;5130144;28;20034;-74
2022/04/03 03:57:58;;;;;;;8.43;5.80;;;;;;;;;;5134430;27;20508;-75
2022/04/03 04:00:23;;;;;;;7.88;5.28;;;;;;;;;;5125537;27;20027;-74
2022/04/03 04:02:48;;;;;;;8.25;5.35;;;;;;;;;;5126834;27;20015;-74
2022/04/03 04:05:14;;;;;;;6.88;4.70;;;;;;;;;;5119205;27;20071;-74
2022/04/03 04:07:40;;;;;;;8.60;5.65;;;;;;;;;;5135357;27;20026;-75
2022/04/03 04:10:06;;;;;;;9.85;6.07;;;;;;;;;;5135363;27;20011;-75
2022/04/03 04:12:31;;;;;;;10.20;6.75;;;;;;;;;;5116269;27;20018;-74
2022/04/03 04:14:57;;;;;;;8.98;5.88;;;;;;;;;;5134734;27;20051;-74
2022/04/03 04:17:23;;;;;;;9.75;6.50;;;;;;;;;;5133780;27;20438;-74
2022/04/03 04:19:49;;;;;;;12.20;6.95;;;;;;;;;;5134830;27;20058;-74
2022/04/03 04:22:14;;;;;;;11.55;7.28;;;;;;;;;;5133977;27;20451;-74
2022/04/03 04:24:40;;;;;;;12.57;8.10;;;;;;;;;;5133534;27;20111;-75
2022/04/03 04:27:05;;;;;;;13.55;8.75;;;;;;;;;;5132928;27;20516;-74
2022/04/03 04:29:30;;;;;;;12.98;8.57;;;;;;;;;;5114160;28;20020;-74
2022/04/03 04:31:55;;;;;;;13.07;8.55;;;;;;;;;;5113872;28;20039;-75
2022/04/03 04:34:21;;;;;;;11.95;8.60;;;;;;;;;;5114387;28;20019;-75
2022/04/03 04:36:46;;;;;;;15.07;9.30;;;;;;;;;;5114128;28;20088;-74
2022/04/03 04:39:11;;;;;;;13.23;9.32;;;;;;;;;;5113992;28;20022;-74
2022/04/03 04:41:37;;;;;;;13.13;9.13;;;;;;;;;;5114078;28;20016;-75
2022/04/03 04:44:02;;;;;;;14.55;9.32;;;;;;;;;;5113772;28;20026;-74
2022/04/03 04:46:27;;;;;;;14.50;9.50;;;;;;;;;;5112466;28;20107;-74
2022/04/03 04:48:53;;;;;;;15.60;10.52;;;;;;;;;;5113832;28;20054;-74
2022/04/03 04:51:18;;;;;;;15.38;10.30;;;;;;;;;;5114227;28;20377;-74
2022/04/03 04:53:44;;;;;;;21.20;13.10;;;;;;;;;;5113856;28;20495;-74
2022/04/03 04:56:09;;;;;;;17.83;11.82;;;;;;;;;;5113726;28;20062;-74
2022/04/03 04:58:34;;;;;;;18.20;12.10;;;;;;;;;;5114076;28;20020;-74
2022/04/03 05:01:00;;;;;;;17.23;11.38;;;;;;;;;;5116551;28;20573;-75
2022/04/03 05:03:25;;;;;;;39.40;22.38;;;;;;;;;;5118308;28;20058;-75
2022/04/03 05:05:50;;;;;;;24.60;15.50;;;;;;;;;;5113597;28;20088;-74
2022/04/03 05:08:15;;;;;;;20.35;13.32;;;;;;;;;;5111997;28;20014;-75
2022/04/03 05:10:41;;;;;;;19.92;12.98;;;;;;;;;;5112148;28;20030;-75
2022/04/03 05:13:10;;;;;;;28.25;16.80;;;;;;;;;;5113299;28;20008;-74
2022/04/03 05:15:35;;;;;;;22.90;13.90;;;;;;;;;;5113066;28;20412;-74
2022/04/03 05:18:00;;;;;;;44.20;24.75;;;;;;;;;;5113130;28;20012;-75
2022/04/03 05:20:26;;;;;;;25.73;15.35;;;;;;;;;;5113317;28;20024;-75
2022/04/03 05:22:51;;;;;;;74.47;41.85;;;;;;;;;;5113417;28;20026;-74
2022/04/03 05:25:16;;;;;;;28.25;17.05;;;;;;;;;;5113185;28;20097;-74
2022/04/03 05:27:42;;;;;;;23.15;14.73;;;;;;;;;;5113355;28;20030;-74
2022/04/03 05:30:08;;;;;;;30.00;18.90;;;;;;;;;;5125327;27;20479;-80
2022/04/03 05:32:33;;;;;;;22.65;14.40;;;;;;;;;;5114046;28;20028;-74
2022/04/03 05:34:59;;;;;;;23.45;13.75;;;;;;;;;;5112661;28;20376;-74
2022/04/03 05:37:24;;;;;;;20.70;13.65;;;;;;;;;;5112752;28;20024;-76
2022/04/03 05:39:51;;;;;;;19.27;12.60;;;;;;;;;;5112681;28;20436;-74
2022/04/03 05:42:16;;;;;;;18.55;11.20;;;;;;;;;;5112774;28;20032;-74
2022/04/03 05:44:42;;;;;;;17.42;11.30;;;;;;;;;;5111194;28;20024;-74
2022/04/03 05:47:07;;;;;;;20.17;10.48;;;;;;;;;;5119632;27;20049;-74
2022/04/03 05:49:33;;;;;;;17.38;10.25;;;;;;;;;;5134628;27;20033;-78
2022/04/03 05:51:58;;;;;;;17.35;10.70;;;;;;;;;;5139091;27;20018;-76
2022/04/03 05:54:23;;;;;;;16.80;11.20;;;;;;;;;;5132260;27;20027;-75
2022/04/03 05:56:49;;;;;;;15.73;11.25;;;;;;;;;;5132930;27;20049;-75
2022/04/03 05:59:14;;;;;;;15.05;9.77;;;;;;;;;;5132869;27;20011;-75
2022/04/03 06:01:40;;;;;;;12.93;8.57;;;;;;;;;;5132952;27;20015;-75
2022/04/03 06:04:05;;;;;;;16.05;9.65;;;;;;;;;;5132768;27;20049;-76
2022/04/03 06:06:30;;;;;;;12.27;8.00;;;;;;;;;;5131412;27;20019;-74
2022/04/03 06:08:56;;;;;;;11.43;7.65;;;;;;;;;;5132825;27;20054;-76
2022/04/03 06:11:21;;;;;;;10.15;6.55;;;;;;;;;;5132386;27;20059;-75
2022/04/03 06:13:46;;;;;;;11.93;6.90;;;;;;;;;;5132682;27;20130;-75
2022/04/03 06:16:11;;;;;;;9.70;5.95;;;;;;;;;;5132477;27;20126;-76
2022/04/03 06:18:37;;;;;;;8.70;6.50;;;;;;;;;;5132073;27;20480;-74
2022/04/03 06:21:02;;;;;;;9.43;5.63;;;;;;;;;;5132337;27;20068;-75
2022/04/03 06:23:27;;;;;;;9.82;5.90;;;;;;;;;;5124776;27;20016;-75
2022/04/03 06:25:53;;;;;;;8.63;5.47;;;;;;;;;;5114599;28;20035;-74
2022/04/03 06:28:19;;;;;;;9.15;6.07;;;;;;;;;;5110610;28;20080;-75
2022/04/03 06:30:46;;;;;;;9.07;6.70;;;;;;;;;;5112216;28;20020;-75
2022/04/03 06:33:11;;;;;;;9.25;6.40;;;;;;;;;;5111675;28;20020;-75
2022/04/03 06:35:37;;;;;;;11.82;7.20;;;;;;;;;;5116260;28;20487;-74
2022/04/03 06:38:02;;;;;;;7.18;5.25;;;;;;;;;;5111518;28;20023;-74
2022/04/03 06:40:27;;;;;;;9.77;5.78;;;;;;;;;;5111435;28;20012;-75
2022/04/03 06:42:53;;;;;;;10.02;6.38;;;;;;;;;;5111384;28;20093;-74
2022/04/03 06:45:18;;;;;;;8.95;6.05;;;;;;;;;;5113555;28;20031;-76
2022/04/03 06:47:43;;;;;;;9.00;6.03;;;;;;;;;;5123752;27;20483;-75
2022/04/03 06:50:09;;;;;;;9.65;6.47;;;;;;;;;;5114060;27;20110;-75
2022/04/03 06:52:36;;;;;;;8.40;5.90;;;;;;;;;;5125088;27;20100;-74
2022/04/03 06:55:01;;;;;;;9.18;6.45;;;;;;;;;;5112916;27;20015;-74
2022/04/03 06:57:26;;;;;;;10.73;6.57;;;;;;;;;;5110801;28;20035;-74
2022/04/03 06:59:52;;;;;;;11.10;5.30;;;;;;;;;;5119350;27;20018;-75
2022/04/03 07:02:17;;;;;;;6.70;4.07;;;;;;;;;;5113583;27;20545;-74
2022/04/03 07:04:42;;;;;;;8.63;4.45;;;;;;;;;;5121544;27;20019;-74
2022/04/03 07:07:08;;;;;;;8.20;4.10;;;;;;;;;;5116727;27;20107;-74
2022/04/03 07:09:37;;;;;;;6.63;3.90;;;;;;;;;;5128332;27;20106;-75
2022/04/03 07:12:03;;;;;;;7.20;4.07;;;;;;;;;;5118349;27;20008;-75
2022/04/03 07:14:29;;;;;;;6.65;4.30;;;;;;;;;;5120567;28;20039;-74
2022/04/03 07:16:54;;;;;;;7.13;4.63;;;;;;;;;;5112264;28;20027;-74
2022/04/03 07:19:19;;;;;;;7.13;4.80;;;;;;;;;;5122127;28;20045;-74
2022/04/03 07:21:46;;;;;;;6.53;4.38;;;;;;;;;;5129821;28;20775;-73
2022/04/03 07:24:11;;;;;;;7.53;4.18;;;;;;;;;;5118481;28;20475;-74
2022/04/03 07:26:36;;;;;;;7.78;3.78;;;;;;;;;;5120821;28;20080;-75
2022/04/03 07:29:02;;;;;;;6.50;3.72;;;;;;;;;;5116196;28;20027;-74
2022/04/03 07:31:28;;;;;;;8.57;4.18;;;;;;;;;;5125365;27;20024;-73
2022/04/03 07:33:54;;;;;;;8.25;4.10;;;;;;;;;;5131038;27;20102;-73
2022/04/03 07:36:19;;;;;;;7.13;3.75;;;;;;;;;;5122274;27;20114;-74
2022/04/03 07:38:44;;;;;;;7.13;4.03;;;;;;;;;;5122382;27;20118;-75
2022/04/03 07:41:09;;;;;;;12.82;4.40;;;;;;;;;;5129506;27;20267;-74
2022/04/03 07:43:35;;;;;;;6.97;3.80;;;;;;;;;;5117767;27;20020;-75
2022/04/03 07:46:00;;;;;;;7.57;4.35;;;;;;;;;;5129784;27;20260;-73
2022/04/03 07:48:25;;;;;;;7.97;4.50;;;;;;;;;;5115116;27;20024;-74
2022/04/03 07:50:51;;;;;;;5.95;3.65;;;;;;;;;;5114394;28;20027;-75
2022/04/03 07:53:16;;;;;;;8.38;4.50;;;;;;;;;;5123703;27;20108;-75
2022/04/03 07:55:42;;;;;;;10.75;3.83;;;;;;;;;;5116484;27;20126;-74
2022/04/03 07:58:07;;;;;;;6.78;3.83;;;;;;;;;;5128764;27;20105;-74
2022/04/03 08:00:33;;;;;;;5.45;3.65;;;;;;;;;;5122267;27;20050;-74
2022/04/03 08:02:58;;;;;;;9.25;4.10;;;;;;;;;;5121142;27;20023;-73
2022/04/03 08:05:23;;;;;;;5.03;3.80;;;;;;;;;;5129339;27;20055;-73
2022/04/03 08:07:49;;;;;;;5.97;3.72;;;;;;;;;;5114643;27;20020;-75
2022/04/03 08:10:15;;;;;;;8.20;4.07;;;;;;;;;;5120974;27;20068;-74
2022/04/03 08:12:42;;;;;;;11.70;4.88;;;;;;;;;;5123734;27;20259;-74
2022/04/03 08:15:08;;;;;;;7.88;4.55;;;;;;;;;;5115518;27;20416;-73
2022/04/03 08:17:38;;;;;;;7.93;4.25;;;;;;;;;;5130875;27;20011;-74
2022/04/03 08:20:04;;;;;;;6.90;4.22;;;;;;;;;;5119375;27;20483;-75
2022/04/03 08:22:29;;;;;;;7.25;4.70;;;;;;;;;;5125395;27;20020;-74
2022/04/03 08:24:54;;;;;;;8.30;4.40;;;;;;;;;;5113205;28;20228;-74
2022/04/03 08:27:20;;;;;;;6.82;4.38;;;;;;;;;;5130167;27;20059;-74
2022/04/03 08:29:45;;;;;;;7.00;4.30;;;;;;;;;;5112833;27;20035;-78
2022/04/03 08:32:11;;;;;;;5.93;3.85;;;;;;;;;;5120092;27;20083;-75
2022/04/03 08:34:37;;;;;;;6.60;4.13;;;;;;;;;;5123476;27;20022;-74
2022/04/03 08:37:02;;;;;;;8.32;3.97;;;;;;;;;;5126247;27;20071;-75
2022/04/03 08:39:27;;;;;;;6.95;4.07;;;;;;;;;;5117635;27;20491;-75
2022/04/03 08:41:53;;;;;;;10.27;4.43;;;;;;;;;;5123490;27;20023;-75
2022/04/03 08:44:18;;;;;;;6.07;4.25;;;;;;;;;;5127333;27;20407;-75
2022/04/03 08:46:47;;;;;;;6.35;3.45;;;;;;;;;;5118482;27;20030;-75
2022/04/03 08:49:12;;;;;;;6.13;4.38;;;;;;;;;;5119518;27;20376;-75
2022/04/03 08:51:39;;;;;;;7.25;3.85;;;;;;;;;;5116783;27;20018;-76
2022/04/03 08:54:05;;;;;;;8.10;3.80;;;;;;;;;;5117692;27;20037;-75
2022/04/03 08:56:30;;;;;;;5.65;3.90;;;;;;;;;;5123217;27;20035;-75
2022/04/03 08:58:55;;;;;;;8.82;4.10;;;;;;;;;;5118748;27;20439;-76
2022/04/03 09:01:21;;;;;;;7.10;4.05;;;;;;;;;;5118769;27;20024;-75
2022/04/03 09:03:47;;;;;;;10.18;3.83;;;;;;;;;;5113320;27;20019;-74
2022/04/03 09:06:13;;;;;;;6.60;3.95;;;;;;;;;;5117543;27;20016;-75
2022/04/03 09:08:39;;;;;;;7.43;4.45;;;;;;;;;;5123521;27;20185;-82
2022/04/03 09:11:05;;;;;;;9.45;4.68;;;;;;;;;;5130481;27;20108;-85
2022/04/03 09:13:31;;;;;;;6.25;4.32;;;;;;;;;;5133080;27;20019;-80
2022/04/03 09:15:56;;;;;;;6.45;3.53;;;;;;;;;;5118832;27;20057;-79
2022/04/03 09:18:21;;;;;;;8.57;4.10;;;;;;;;;;5128720;27;20050;-76
2022/04/03 09:20:47;;;;;;;7.13;4.27;;;;;;;;;;5122303;27;20023;-76
2022/04/03 09:23:16;;;;;;;9.05;4.03;;;;;;;;;;5123746;27;20260;-75
2022/04/03 09:25:41;;;;;;;7.47;3.60;;;;;;;;;;5117142;27;20031;-79
2022/04/03 09:28:11;;;;;;;8.32;4.07;;;;;;;;;;5127603;27;20011;-76
2022/04/03 09:30:36;;;;;;;9.15;4.03;;;;;;;;;;5123017;27;20022;-75
2022/04/03 09:33:02;;;;;;;7.88;3.97;;;;;;;;;;5118193;27;20026;-74
2022/04/03 09:35:32;;;;;;;9.23;4.57;;;;;;;;;;5128134;27;20059;-73
2022/04/03 09:38:07;;;;;;;7.57;4.03;;;;;;;;;;5117345;27;20113;-76
2022/04/03 09:40:32;;;;;;;;;;;;;;;;;;5123774;27;20084;-78
2022/04/03 09:42:58;;;;;;;;;;;;;;;;;;5119373;27;19907;-75
2022/04/03 09:45:23;;;;;;;6.78;3.78;;;;;;;;;;5129766;27;19956;-76
2022/04/03 09:47:49;;;;;;;7.05;4.07;;;;;;;;;;5110774;27;20026;-76
2022/04/03 09:50:14;;;;;;;8.43;4.13;;;;;;;;;;5121743;27;20069;-77
2022/04/03 09:52:41;;;;;;;7.72;3.85;;;;;;;;;;5112665;28;20026;-75
2022/04/03 09:55:28;;;;;;;5.38;3.63;;;;;;;;;;5118411;27;20023;-75
2022/04/03 09:58:03;;;;;;;6.90;3.88;;;;;;;;;;5113570;27;20045;-78
2022/04/03 10:00:29;;;;;;;6.00;3.78;;;;;;;;;;5130914;27;20092;-74
2022/04/03 10:03:13;;;;;;;5.57;3.70;;;;;;;;;;5132637;27;20479;-78
2022/04/03 10:05:38;;;;;;;7.22;4.45;;;;;;;;;;5115128;27;20495;-76
2022/04/03 10:08:04;;;;;;;8.20;4.70;;;;;;;;;;5111396;28;20087;-74
2022/04/03 10:10:31;;;;;;;6.00;4.07;;;;;;;;;;5110376;28;20092;-76
2022/04/03 10:12:56;;;;;;;7.60;4.65;;;;;;;;;;5111826;28;20027;-76
2022/04/03 10:15:22;;;;;;;6.20;3.80;;;;;;;;;;5112074;28;20089;-75
2022/04/03 10:17:47;;;;;;;6.63;3.65;;;;;;;;;;5117482;27;20124;-75
2022/04/03 10:20:14;;;;;;;5.72;4.15;;;;;;;;;;5112887;27;20364;-74
2022/04/03 10:22:39;;;;;;;8.50;4.05;;;;;;;;;;5116401;27;20019;-73
2022/04/03 10:25:11;;;;;;;8.65;3.72;;;;;;;;;;5131220;27;20030;-81
2022/04/03 10:27:40;;;;;;;7.47;3.78;;;;;;;;;;5130667;27;20014;-74
2022/04/03 10:30:06;;;;;;;8.70;3.90;;;;;;;;;;5131214;27;20023;-75
2022/04/03 10:32:33;;;;;;;5.32;3.50;;;;;;;;;;5131133;27;20577;-75
2022/04/03 10:35:03;;;;;;;8.38;3.95;;;;;;;;;;5126598;27;20037;-77
2022/04/03 10:37:34;;;;;;;7.68;4.57;;;;;;;;;;5111541;28;20373;-76
2022/04/03 10:40:20;;;;;;;8.35;4.32;;;;;;;;;;5111988;28;20027;-75
2022/04/03 10:42:56;;;;;;;10.48;4.47;;;;;;;;;;5126013;27;20393;-74
2022/04/03 10:45:32;;;;;;;6.38;4.13;;;;;;;;;;5132133;27;20030;-74
2022/04/03 10:48:16;;;;;;;8.98;4.40;;;;;;;;;;5120569;27;20012;-74
2022/04/03 10:50:55;;;;;;;6.18;3.72;;;;;;;;;;5109876;28;20031;-74
2022/04/03 10:53:24;;;;;;;7.03;3.97;;;;;;;;;;5110100;28;20032;-74
2022/04/03 10:55:54;;;;;;;7.68;4.10;;;;;;;;;;5111047;28;20028;-74
2022/04/03 10:58:19;;;;;;;6.07;3.95;;;;;;;;;;5111477;28;20023;-76
2022/04/03 11:00:45;;;;;;;6.95;4.15;;;;;;;;;;5114137;28;20165;-75
2022/04/03 11:03:13;;;;;;;5.22;3.58;;;;;;;;;;5113417;28;20049;-83
2022/04/03 11:05:39;;;;;;;7.28;3.97;;;;;;;;;;5112402;28;20023;-80
2022/04/03 11:08:04;;;;;;;8.27;3.95;;;;;;;;;;5111158;28;20023;-76
2022/04/03 11:10:57;;;;;;;7.60;4.57;;;;;;;;;;5111486;28;20030;-75
2022/04/03 11:13:23;;;;;;;6.80;4.53;;;;;;;;;;5111441;28;20039;-76
2022/04/03 11:15:48;;;;;;;8.30;3.70;;;;;;;;;;5109049;28;20048;-79
2022/04/03 11:18:25;;;;;;;9.10;4.13;;;;;;;;;;5110790;28;20044;-80
2022/04/03 11:21:03;;;;;;;9.60;3.80;;;;;;;;;;5110891;28;20114;-75
2022/04/03 11:23:29;;;;;;;7.40;4.38;;;;;;;;;;5111560;28;20023;-82
2022/04/03 11:25:54;;;;;;;7.30;4.55;;;;;;;;;;5111999;28;20077;-74
2022/04/03 11:28:20;;;;;;;6.90;4.22;;;;;;;;;;5110320;28;20051;-75
2022/04/03 11:30:45;;;;;;;7.07;4.13;;;;;;;;;;5110834;28;20026;-76
2022/04/03 11:33:11;;;;;;;7.32;3.58;;;;;;;;;;5114169;28;20484;-78
2022/04/03 11:35:38;;;;;;;9.38;4.07;;;;;;;;;;5117870;28;20085;-77
2022/04/03 11:38:03;;;;;;;7.70;3.92;;;;;;;;;;5112528;28;20431;-75
2022/04/03 11:40:29;;;;;;;8.57;4.05;;;;;;;;;;5111427;28;20022;-77
2022/04/03 11:43:10;;;;;;;5.93;3.95;;;;;;;;;;5110519;28;20027;-75
2022/04/03 11:45:36;;;;;;;9.25;5.30;;;;;;;;;;5110616;28;20023;-74
2022/04/03 11:48:14;;;;;;;7.32;4.03;;;;;;;;;;5110284;28;20046;-75
2022/04/03 11:50:40;;;;;;;8.50;3.97;;;;;;;;;;5110294;28;20024;-76
2022/04/03 11:53:08;;;;;;;7.22;3.63;;;;;;;;;;5119514;28;20016;-75
2022/04/03 11:55:35;;;;;;;5.70;3.78;;;;;;;;;;5129667;28;20031;-74
2022/04/03 11:58:03;;;;;;;7.15;3.92;;;;;;;;;;5117162;27;20073;-76
2022/04/03 12:00:30;;;;;;;8.23;4.10;;;;;;;;;;5110102;28;20511;-76
2022/04/03 12:02:59;;;;;;;9.73;5.15;;;;;;;;;;5110211;28;20072;-75
2022/04/03 12:05:24;;;;;;;6.50;4.10;;;;;;;;;;5109934;28;20484;-74
2022/04/03 12:07:50;;;;;;;6.15;4.07;;;;;;;;;;5109970;28;20031;-75
2022/04/03 12:10:26;;;;;;;9.05;3.97;;;;;;;;;;5116142;28;20514;-74
2022/04/03 12:12:53;;;;;;;11.68;4.18;;;;;;;;;;5128438;28;20384;-73
2022/04/03 12:15:19;;;;;;;7.90;4.03;;;;;;;;;;5132069;27;20046;-74
2022/04/03 12:17:44;;;;;;;6.15;4.40;;;;;;;;;;5130896;27;20031;-75
2022/04/03 12:20:12;;;;;;;9.45;4.53;;;;;;;;;;5131912;27;20007;-75
2022/04/03 12:22:40;;;;;;;8.30;3.92;;;;;;;;;;5133288;27;20382;-75
2022/04/03 12:25:05;;;;;;;9.05;4.35;;;;;;;;;;5134325;27;20100;-76
2022/04/03 12:27:32;;;;;;;8.07;4.20;;;;;;;;;;5133746;27;20156;-74
2022/04/03 12:29:57;;;;;;;7.53;4.35;;;;;;;;;;5133488;27;20015;-75
2022/04/03 12:32:22;;;;;;;7.32;3.58;;;;;;;;;;5115416;27;20544;-76
2022/04/03 12:34:49;;;;;;;7.77;4.20;;;;;;;;;;5115764;27;20141;-69
2022/04/03 12:37:14;;;;;;;8.82;4.82;;;;;;;;;;5108515;27;20287;-68
2022/04/03 12:39:46;;;;;;;6.30;4.07;;;;;;;;;;5109083;28;20566;-70
2022/04/03 12:42:16;;;;;;;15.13;4.60;;;;;;;;;;5109691;28;20019;-69
2022/04/03 12:44:42;;;;;;;10.00;4.38;;;;;;;;;;5109228;28;20019;-70
2022/04/03 12:47:11;;;;;;;9.13;5.50;;;;;;;;;;5109283;28;20069;-71
2022/04/03 12:49:37;;;;;;;7.05;4.45;;;;;;;;;;5114982;27;20055;-70
2022/04/03 12:52:02;;;;;;;10.57;4.10;;;;;;;;;;5109314;28;20058;-70
2022/04/03 12:54:40;;;;;;;15.98;5.10;;;;;;;;;;5108836;28;20053;-69
2022/04/03 13:00:04;;;;;;;6.70;3.78;;;;;;;;;;5113772;27;20042;-69
2022/04/03 13:02:38;;;;;;;8.20;4.18;;;;;;;;;;5118703;27;20091;-70
2022/04/03 13:05:04;;;;;;;5.73;4.13;;;;;;;;;;5109379;28;20035;-73
2022/04/03 13:07:29;;;;;;;5.90;3.45;;;;;;;;;;5110835;27;20602;-73
2022/04/03 13:09:56;;;;;;;9.43;3.80;;;;;;;;;;5111558;28;20034;-76
2022/04/03 13:12:28;;;;;;;8.60;4.05;;;;;;;;;;5121340;27;20446;-74
2022/04/03 13:14:54;;;;;;;7.35;4.13;;;;;;;;;;5109066;28;20123;-74
2022/04/03 13:17:19;;;;;;;9.52;4.10;;;;;;;;;;5114555;27;20039;-72
2022/04/03 13:19:45;;;;;;;7.72;4.47;;;;;;;;;;5114038;27;20046;-75
2022/04/03 13:22:12;;;;;;;7.40;3.90;;;;;;;;;;5119475;27;20023;-72
2022/04/03 13:24:37;;;;;;;9.48;4.20;;;;;;;;;;5121041;27;20015;-74
2022/04/03 13:27:03;;;;;;;8.45;4.40;;;;;;;;;;5110842;27;20497;-73
2022/04/03 13:29:29;;;;;;;6.28;4.22;;;;;;;;;;5116520;27;20030;-73
2022/04/03 13:31:56;;;;;;;9.85;4.45;;;;;;;;;;5120541;27;20412;-72
2022/04/03 13:34:22;;;;;;;5.93;3.85;;;;;;;;;;5117227;27;20540;-67
2022/04/03 13:36:47;;;;;;;10.15;4.30;;;;;;;;;;5111866;27;20032;-69
2022/04/03 13:39:12;;;;;;;9.32;4.20;;;;;;;;;;5116346;27;20034;-71
2022/04/03 13:41:39;;;;;;;6.88;4.18;;;;;;;;;;5109242;27;20015;-72
2022/04/03 13:44:05;;;;;;;6.50;4.03;;;;;;;;;;5110370;28;20016;-80
2022/04/03 13:46:30;;;;;;;9.48;3.75;;;;;;;;;;5113695;27;20011;-73
2022/04/03 13:48:56;;;;;;;9.13;4.82;;;;;;;;;;5124359;27;20555;-74
2022/04/03 13:51:21;;;;;;;6.80;3.80;;;;;;;;;;5132799;27;20023;-73
2022/04/03 13:53:46;;;;;;;11.63;4.35;;;;;;;;;;5133040;27;20044;-72
2022/04/03 13:56:12;;;;;;;7.65;3.67;;;;;;;;;;5115557;27;20127;-72
2022/04/03 13:58:38;;;;;;;6.63;3.65;;;;;;;;;;5108219;27;20023;-72
2022/04/03 14:01:04;;;;;;;9.20;3.92;;;;;;;;;;5112719;27;20026;-72
2022/04/03 14:03:30;;;;;;;6.28;4.18;;;;;;;;;;5113576;27;20027;-76
2022/04/03 14:05:56;;;;;;;9.20;4.88;;;;;;;;;;5109013;27;20517;-71
2022/04/03 14:08:22;;;;;;;5.57;3.60;;;;;;;;;;5112033;27;20146;-72
2022/04/03 14:10:48;;;;;;;8.98;4.10;;;;;;;;;;5107799;27;20029;-72
2022/04/03 14:13:14;;;;;;;6.05;3.65;;;;;;;;;;5105494;27;20103;-71
2022/04/03 14:15:40;;;;;;;8.23;4.13;;;;;;;;;;5108862;27;20039;-71
2022/04/03 14:18:05;;;;;;;7.55;3.75;;;;;;;;;;5107317;27;20022;-72
2022/04/03 14:20:30;;;;;;;7.68;3.47;;;;;;;;;;5110389;27;20031;-73
2022/04/03 14:22:56;;;;;;;5.95;3.63;;;;;;;;;;5109694;27;20016;-72
2022/04/03 14:25:21;;;;;;;7.70;4.13;;;;;;;;;;5107550;28;20012;-72
2022/04/03 14:27:47;;;;;;;7.78;3.70;;;;;;;;;;5105097;27;20054;-73
2022/04/03 14:30:13;;;;;;;7.40;3.78;;;;;;;;;;5109025;27;20043;-72
2022/04/03 14:32:45;;;;;;;7.03;3.42;;;;;;;;;;5113229;27;20035;-74
2022/04/03 14:35:11;;;;;;;6.25;4.03;;;;;;;;;;5110922;27;20027;-71